Terminal Aerodrome Forecast
Issued by NWS

Home | Current Version | Previous Version | Graphics & Text | Print | Product List | Glossary On
Versions: 1 2 3 4 5 6 7 8 9 10 11 12 13 14 15 16 17 18 19 20 21 22 23 24 25 26 27 28 29 30 31 32
000
FTUS43 KLOT 250520
TAFORD
TAF
KORD 250520Z 2506/2612 23005KT 6SM -SHRA VCTS SCT035CB BKN050
      BKN150
     FM250715 23004KT P6SM VCSH SCT040 BKN100
     FM250800 23004KT 6SM -SHRA SCT030 BKN050 BKN100
      TEMPO 2508/2511 4SM -TSRA SCT010 BKN025CB
     FM251200 29007KT P6SM VCSH BKN025
     FM251900 31010KT P6SM SCT035
     FM260100 29005KT P6SM FEW150 SCT250=

USA.gov is the U.S. government's official web portal to all federal, state and local government web resources and services.